sensor_id;sensor_type;location;lat;lon;timestamp;P1;durP1;ratioP1;P2;durP2;ratioP2
50549;SDS011;36505;52.512;13.460;2022-08-14T00:00:22;8.45;;;5.00;;
50549;SDS011;36505;52.512;13.460;2022-08-14T00:02:48;7.30;;;4.88;;
50549;SDS011;36505;52.512;13.460;2022-08-14T00:05:16;7.88;;;4.25;;
50549;SDS011;36505;52.512;13.460;2022-08-14T00:07:45;7.80;;;5.15;;
50549;SDS011;36505;52.512;13.460;2022-08-14T00:10:12;5.90;;;4.35;;
50549;SDS011;36505;52.512;13.460;2022-08-14T00:12:42;6.60;;;4.60;;
50549;SDS011;36505;52.512;13.460;2022-08-14T00:15:16;9.95;;;5.65;;
50549;SDS011;36505;52.512;13.460;2022-08-14T00:17:53;10.65;;;5.47;;
50549;SDS011;36505;52.512;13.460;2022-08-14T00:20:27;8.93;;;5.10;;
50549;SDS011;36505;52.512;13.460;2022-08-14T00:22:56;8.68;;;5.00;;
50549;SDS011;36505;52.512;13.460;2022-08-14T00:25:22;15.73;;;5.55;;
50549;SDS011;36505;52.512;13.460;2022-08-14T00:27:47;6.70;;;5.10;;
50549;SDS011;36505;52.512;13.460;2022-08-14T00:30:12;5.65;;;4.55;;
50549;SDS011;36505;52.512;13.460;2022-08-14T00:32:54;10.50;;;6.05;;
50549;SDS011;36505;52.512;13.460;2022-08-14T00:35:33;9.27;;;5.70;;
50549;SDS011;36505;52.512;13.460;2022-08-14T00:38:13;11.05;;;5.82;;
50549;SDS011;36505;52.512;13.460;2022-08-14T00:40:53;8.20;;;5.22;;
50549;SDS011;36505;52.512;13.460;2022-08-14T00:43:46;7.78;;;5.07;;
50549;SDS011;36505;52.512;13.460;2022-08-14T00:46:20;8.63;;;5.72;;
50549;SDS011;36505;52.512;13.460;2022-08-14T00:48:47;6.47;;;5.45;;
50549;SDS011;36505;52.512;13.460;2022-08-14T00:51:17;8.23;;;5.25;;
50549;SDS011;36505;52.512;13.460;2022-08-14T00:53:58;8.80;;;5.47;;
50549;SDS011;36505;52.512;13.460;2022-08-14T00:56:47;8.25;;;5.47;;
50549;SDS011;36505;52.512;13.460;2022-08-14T00:59:38;8.52;;;5.80;;
50549;SDS011;36505;52.512;13.460;2022-08-14T01:02:41;7.25;;;5.47;;
50549;SDS011;36505;52.512;13.460;2022-08-14T01:05:27;9.73;;;5.03;;
50549;SDS011;36505;52.512;13.460;2022-08-14T01:08:08;7.07;;;5.63;;
50549;SDS011;36505;52.512;13.460;2022-08-14T01:10:47;8.07;;;5.55;;
50549;SDS011;36505;52.512;13.460;2022-08-14T01:16:26;8.27;;;5.70;;
50549;SDS011;36505;52.512;13.460;2022-08-14T01:22:01;8.70;;;5.50;;
50549;SDS011;36505;52.512;13.460;2022-08-14T01:24:49;6.88;;;5.60;;
50549;SDS011;36505;52.512;13.460;2022-08-14T01:27:36;10.82;;;5.90;;
50549;SDS011;36505;52.512;13.460;2022-08-14T01:30:25;10.50;;;5.65;;
50549;SDS011;36505;52.512;13.460;2022-08-14T01:36:33;7.80;;;4.85;;
50549;SDS011;36505;52.512;13.460;2022-08-14T01:39:17;9.20;;;6.15;;
50549;SDS011;36505;52.512;13.460;2022-08-14T01:42:48;9.48;;;5.38;;
50549;SDS011;36505;52.512;13.460;2022-08-14T01:45:49;12.23;;;6.00;;
50549;SDS011;36505;52.512;13.460;2022-08-14T01:58:06;10.07;;;6.07;;
50549;SDS011;36505;52.512;13.460;2022-08-14T02:00:41;10.88;;;6.18;;
50549;SDS011;36505;52.512;13.460;2022-08-14T02:03:20;12.00;;;6.70;;
50549;SDS011;36505;52.512;13.460;2022-08-14T02:06:17;9.90;;;6.22;;
50549;SDS011;36505;52.512;13.460;2022-08-14T02:11:40;8.23;;;5.47;;
50549;SDS011;36505;52.512;13.460;2022-08-14T02:14:22;9.13;;;5.75;;
50549;SDS011;36505;52.512;13.460;2022-08-14T02:17:13;10.93;;;6.18;;
50549;SDS011;36505;52.512;13.460;2022-08-14T02:19:47;8.98;;;5.93;;
50549;SDS011;36505;52.512;13.460;2022-08-14T02:22:28;12.13;;;6.03;;
50549;SDS011;36505;52.512;13.460;2022-08-14T02:25:07;8.23;;;5.88;;
50549;SDS011;36505;52.512;13.460;2022-08-14T02:38:36;9.50;;;6.05;;
50549;SDS011;36505;52.512;13.460;2022-08-14T02:41:23;8.32;;;6.18;;
50549;SDS011;36505;52.512;13.460;2022-08-14T02:43:52;9.52;;;6.60;;
50549;SDS011;36505;52.512;13.460;2022-08-14T02:46:17;13.18;;;6.45;;
50549;SDS011;36505;52.512;13.460;2022-08-14T02:48:42;11.77;;;6.03;;
50549;SDS011;36505;52.512;13.460;2022-08-14T02:51:09;10.05;;;6.03;;
50549;SDS011;36505;52.512;13.460;2022-08-14T02:53:38;9.25;;;6.45;;
50549;SDS011;36505;52.512;13.460;2022-08-14T02:56:06;8.73;;;6.38;;
50549;SDS011;36505;52.512;13.460;2022-08-14T02:58:35;7.47;;;5.88;;
50549;SDS011;36505;52.512;13.460;2022-08-14T03:01:03;9.90;;;6.20;;
50549;SDS011;36505;52.512;13.460;2022-08-14T03:03:29;7.38;;;5.70;;
50549;SDS011;36505;52.512;13.460;2022-08-14T03:05:55;11.52;;;5.95;;
50549;SDS011;36505;52.512;13.460;2022-08-14T03:08:20;9.35;;;6.70;;
50549;SDS011;36505;52.512;13.460;2022-08-14T03:10:46;13.05;;;7.53;;
50549;SDS011;36505;52.512;13.460;2022-08-14T03:13:12;9.95;;;6.25;;
50549;SDS011;36505;52.512;13.460;2022-08-14T03:15:37;10.02;;;6.10;;
50549;SDS011;36505;52.512;13.460;2022-08-14T03:18:11;15.57;;;6.22;;
50549;SDS011;36505;52.512;13.460;2022-08-14T03:20:38;9.20;;;6.45;;
50549;SDS011;36505;52.512;13.460;2022-08-14T03:23:04;9.13;;;6.45;;
50549;SDS011;36505;52.512;13.460;2022-08-14T03:25:30;8.40;;;6.38;;
50549;SDS011;36505;52.512;13.460;2022-08-14T03:27:57;12.60;;;6.65;;
50549;SDS011;36505;52.512;13.460;2022-08-14T03:30:27;14.88;;;6.93;;
50549;SDS011;36505;52.512;13.460;2022-08-14T03:32:55;9.90;;;6.28;;
50549;SDS011;36505;52.512;13.460;2022-08-14T03:35:21;14.18;;;7.07;;
50549;SDS011;36505;52.512;13.460;2022-08-14T03:37:47;8.65;;;6.72;;
50549;SDS011;36505;52.512;13.460;2022-08-14T03:40:12;11.27;;;6.90;;
50549;SDS011;36505;52.512;13.460;2022-08-14T03:42:38;8.95;;;6.70;;
50549;SDS011;36505;52.512;13.460;2022-08-14T03:45:03;11.57;;;6.68;;
50549;SDS011;36505;52.512;13.460;2022-08-14T03:47:32;13.55;;;6.40;;
50549;SDS011;36505;52.512;13.460;2022-08-14T03:50:04;11.50;;;6.57;;
50549;SDS011;36505;52.512;13.460;2022-08-14T03:52:35;9.05;;;6.47;;
50549;SDS011;36505;52.512;13.460;2022-08-14T03:55:02;11.52;;;6.68;;
50549;SDS011;36505;52.512;13.460;2022-08-14T03:57:30;13.35;;;6.93;;
50549;SDS011;36505;52.512;13.460;2022-08-14T03:59:57;18.10;;;5.95;;
50549;SDS011;36505;52.512;13.460;2022-08-14T04:02:23;9.75;;;6.68;;
50549;SDS011;36505;52.512;13.460;2022-08-14T04:04:49;9.40;;;6.45;;
50549;SDS011;36505;52.512;13.460;2022-08-14T04:07:15;9.70;;;5.93;;
50549;SDS011;36505;52.512;13.460;2022-08-14T04:09:41;9.10;;;6.70;;
50549;SDS011;36505;52.512;13.460;2022-08-14T04:12:06;12.25;;;6.55;;
50549;SDS011;36505;52.512;13.460;2022-08-14T04:14:32;11.10;;;7.13;;
50549;SDS011;36505;52.512;13.460;2022-08-14T04:16:58;12.18;;;6.80;;
50549;SDS011;36505;52.512;13.460;2022-08-14T04:19:23;9.82;;;5.95;;
50549;SDS011;36505;52.512;13.460;2022-08-14T04:21:49;8.63;;;6.68;;
50549;SDS011;36505;52.512;13.460;2022-08-14T04:24:14;8.68;;;6.45;;
50549;SDS011;36505;52.512;13.460;2022-08-14T04:26:41;7.18;;;6.13;;
50549;SDS011;36505;52.512;13.460;2022-08-14T04:29:08;10.27;;;6.85;;
50549;SDS011;36505;52.512;13.460;2022-08-14T04:31:33;9.50;;;6.28;;
50549;SDS011;36505;52.512;13.460;2022-08-14T04:33:59;13.38;;;6.38;;
50549;SDS011;36505;52.512;13.460;2022-08-14T04:36:25;10.45;;;6.88;;
50549;SDS011;36505;52.512;13.460;2022-08-14T04:38:50;9.88;;;6.32;;
50549;SDS011;36505;52.512;13.460;2022-08-14T04:41:35;12.80;;;6.38;;
50549;SDS011;36505;52.512;13.460;2022-08-14T04:44:19;7.93;;;6.13;;
50549;SDS011;36505;52.512;13.460;2022-08-14T04:46:45;8.65;;;6.70;;
50549;SDS011;36505;52.512;13.460;2022-08-14T04:49:30;14.05;;;6.85;;
50549;SDS011;36505;52.512;13.460;2022-08-14T04:51:56;9.05;;;6.25;;
50549;SDS011;36505;52.512;13.460;2022-08-14T04:54:22;12.25;;;6.65;;
50549;SDS011;36505;52.512;13.460;2022-08-14T04:56:51;8.40;;;6.70;;
50549;SDS011;36505;52.512;13.460;2022-08-14T04:59:17;9.45;;;6.72;;
50549;SDS011;36505;52.512;13.460;2022-08-14T05:01:42;10.65;;;7.07;;
50549;SDS011;36505;52.512;13.460;2022-08-14T05:04:08;11.13;;;7.18;;
50549;SDS011;36505;52.512;13.460;2022-08-14T05:06:35;11.68;;;6.72;;
50549;SDS011;36505;52.512;13.460;2022-08-14T05:09:02;10.50;;;6.85;;
50549;SDS011;36505;52.512;13.460;2022-08-14T05:11:28;9.13;;;6.28;;
50549;SDS011;36505;52.512;13.460;2022-08-14T05:13:57;10.60;;;7.07;;
50549;SDS011;36505;52.512;13.460;2022-08-14T05:16:23;11.02;;;6.95;;
50549;SDS011;36505;52.512;13.460;2022-08-14T05:18:55;13.20;;;6.85;;
50549;SDS011;36505;52.512;13.460;2022-08-14T05:21:21;10.48;;;7.38;;
50549;SDS011;36505;52.512;13.460;2022-08-14T05:23:47;7.72;;;6.47;;
50549;SDS011;36505;52.512;13.460;2022-08-14T05:26:12;14.48;;;7.03;;
50549;SDS011;36505;52.512;13.460;2022-08-14T05:28:42;11.40;;;6.78;;
50549;SDS011;36505;52.512;13.460;2022-08-14T05:31:09;10.70;;;6.32;;
50549;SDS011;36505;52.512;13.460;2022-08-14T05:33:35;13.05;;;7.13;;
50549;SDS011;36505;52.512;13.460;2022-08-14T05:36:05;10.88;;;6.70;;
50549;SDS011;36505;52.512;13.460;2022-08-14T05:38:34;7.97;;;6.38;;
50549;SDS011;36505;52.512;13.460;2022-08-14T05:41:08;10.73;;;7.65;;
50549;SDS011;36505;52.512;13.460;2022-08-14T05:43:37;9.27;;;6.45;;
50549;SDS011;36505;52.512;13.460;2022-08-14T05:46:03;12.20;;;7.22;;
50549;SDS011;36505;52.512;13.460;2022-08-14T05:48:30;10.20;;;6.63;;
50549;SDS011;36505;52.512;13.460;2022-08-14T05:50:55;11.75;;;6.80;;
50549;SDS011;36505;52.512;13.460;2022-08-14T05:53:21;13.10;;;7.20;;
50549;SDS011;36505;52.512;13.460;2022-08-14T05:55:49;10.48;;;6.88;;
50549;SDS011;36505;52.512;13.460;2022-08-14T05:58:15;11.75;;;7.10;;
50549;SDS011;36505;52.512;13.460;2022-08-14T06:00:41;10.20;;;7.38;;
50549;SDS011;36505;52.512;13.460;2022-08-14T06:03:09;11.10;;;6.38;;
50549;SDS011;36505;52.512;13.460;2022-08-14T06:05:40;10.40;;;6.78;;
50549;SDS011;36505;52.512;13.460;2022-08-14T06:08:16;14.55;;;6.88;;
50549;SDS011;36505;52.512;13.460;2022-08-14T06:10:46;10.35;;;7.05;;
50549;SDS011;36505;52.512;13.460;2022-08-14T06:13:13;9.75;;;6.38;;
50549;SDS011;36505;52.512;13.460;2022-08-14T06:15:39;11.10;;;6.68;;
50549;SDS011;36505;52.512;13.460;2022-08-14T06:18:05;12.63;;;7.35;;
50549;SDS011;36505;52.512;13.460;2022-08-14T06:20:31;12.00;;;6.82;;
50549;SDS011;36505;52.512;13.460;2022-08-14T06:22:57;10.50;;;6.22;;
50549;SDS011;36505;52.512;13.460;2022-08-14T06:25:23;11.27;;;7.00;;
50549;SDS011;36505;52.512;13.460;2022-08-14T06:27:49;9.82;;;6.97;;
50549;SDS011;36505;52.512;13.460;2022-08-14T06:30:15;8.57;;;6.28;;
50549;SDS011;36505;52.512;13.460;2022-08-14T06:32:43;9.35;;;6.43;;
50549;SDS011;36505;52.512;13.460;2022-08-14T06:35:10;9.65;;;6.43;;
50549;SDS011;36505;52.512;13.460;2022-08-14T06:40:08;8.48;;;6.40;;
50549;SDS011;36505;52.512;13.460;2022-08-14T06:42:34;14.25;;;6.38;;
50549;SDS011;36505;52.512;13.460;2022-08-14T06:45:00;11.85;;;6.00;;
50549;SDS011;36505;52.512;13.460;2022-08-14T06:47:26;8.93;;;6.43;;
50549;SDS011;36505;52.512;13.460;2022-08-14T06:49:52;10.43;;;6.32;;
50549;SDS011;36505;52.512;13.460;2022-08-14T06:52:17;10.55;;;6.05;;
50549;SDS011;36505;52.512;13.460;2022-08-14T06:54:43;11.30;;;6.32;;
50549;SDS011;36505;52.512;13.460;2022-08-14T06:57:09;11.90;;;6.20;;
50549;SDS011;36505;52.512;13.460;2022-08-14T06:59:35;11.75;;;5.45;;
50549;SDS011;36505;52.512;13.460;2022-08-14T07:02:00;10.23;;;5.57;;
50549;SDS011;36505;52.512;13.460;2022-08-14T07:04:44;9.60;;;5.63;;
50549;SDS011;36505;52.512;13.460;2022-08-14T07:07:38;9.85;;;5.00;;
50549;SDS011;36505;52.512;13.460;2022-08-14T07:10:05;8.57;;;5.63;;
50549;SDS011;36505;52.512;13.460;2022-08-14T07:12:32;11.07;;;5.38;;
50549;SDS011;36505;52.512;13.460;2022-08-14T07:14:57;7.57;;;5.00;;
50549;SDS011;36505;52.512;13.460;2022-08-14T07:17:23;10.25;;;4.50;;
50549;SDS011;36505;52.512;13.460;2022-08-14T07:19:48;7.95;;;5.15;;
50549;SDS011;36505;52.512;13.460;2022-08-14T07:22:14;8.35;;;5.20;;
50549;SDS011;36505;52.512;13.460;2022-08-14T07:24:39;8.80;;;4.60;;
50549;SDS011;36505;52.512;13.460;2022-08-14T07:27:04;6.03;;;4.43;;
50549;SDS011;36505;52.512;13.460;2022-08-14T07:29:30;9.05;;;4.57;;
50549;SDS011;36505;52.512;13.460;2022-08-14T07:31:55;9.80;;;4.78;;
50549;SDS011;36505;52.512;13.460;2022-08-14T07:34:21;11.02;;;4.07;;
50549;SDS011;36505;52.512;13.460;2022-08-14T07:36:46;8.20;;;4.80;;
50549;SDS011;36505;52.512;13.460;2022-08-14T07:39:12;7.10;;;4.50;;
50549;SDS011;36505;52.512;13.460;2022-08-14T07:41:38;5.35;;;4.15;;
50549;SDS011;36505;52.512;13.460;2022-08-14T07:44:03;7.18;;;4.13;;
50549;SDS011;36505;52.512;13.460;2022-08-14T07:46:29;5.05;;;4.07;;
50549;SDS011;36505;52.512;13.460;2022-08-14T07:48:55;7.40;;;4.45;;
50549;SDS011;36505;52.512;13.460;2022-08-14T07:51:21;9.35;;;3.70;;
50549;SDS011;36505;52.512;13.460;2022-08-14T07:53:47;6.07;;;4.45;;
50549;SDS011;36505;52.512;13.460;2022-08-14T07:56:12;7.03;;;4.30;;
50549;SDS011;36505;52.512;13.460;2022-08-14T07:58:38;11.73;;;4.20;;
50549;SDS011;36505;52.512;13.460;2022-08-14T08:01:04;6.32;;;3.97;;
50549;SDS011;36505;52.512;13.460;2022-08-14T08:03:32;6.20;;;3.58;;
50549;SDS011;36505;52.512;13.460;2022-08-14T08:05:58;7.22;;;4.07;;
50549;SDS011;36505;52.512;13.460;2022-08-14T08:08:25;8.00;;;4.47;;
50549;SDS011;36505;52.512;13.460;2022-08-14T08:10:54;5.45;;;4.28;;
50549;SDS011;36505;52.512;13.460;2022-08-14T08:13:21;6.25;;;3.40;;
50549;SDS011;36505;52.512;13.460;2022-08-14T08:15:48;13.23;;;4.32;;
50549;SDS011;36505;52.512;13.460;2022-08-14T08:20:45;5.43;;;3.53;;
50549;SDS011;36505;52.512;13.460;2022-08-14T08:23:13;8.30;;;4.00;;
50549;SDS011;36505;52.512;13.460;2022-08-14T08:25:41;4.95;;;3.70;;
50549;SDS011;36505;52.512;13.460;2022-08-14T08:28:20;7.00;;;3.60;;
50549;SDS011;36505;52.512;13.460;2022-08-14T08:30:54;6.30;;;3.60;;
50549;SDS011;36505;52.512;13.460;2022-08-14T08:33:23;6.82;;;3.97;;
50549;SDS011;36505;52.512;13.460;2022-08-14T08:35:52;8.23;;;3.78;;
50549;SDS011;36505;52.512;13.460;2022-08-14T08:38:22;5.35;;;3.70;;
50549;SDS011;36505;52.512;13.460;2022-08-14T08:40:49;11.45;;;4.57;;
50549;SDS011;36505;52.512;13.460;2022-08-14T08:43:30;7.68;;;4.00;;
50549;SDS011;36505;52.512;13.460;2022-08-14T08:46:05;8.40;;;3.67;;
50549;SDS011;36505;52.512;13.460;2022-08-14T08:48:45;6.30;;;3.50;;
50549;SDS011;36505;52.512;13.460;2022-08-14T08:53:54;7.03;;;3.53;;
50549;SDS011;36505;52.512;13.460;2022-08-14T08:59:01;11.43;;;4.22;;
50549;SDS011;36505;52.512;13.460;2022-08-14T09:01:28;5.15;;;3.78;;
50549;SDS011;36505;52.512;13.460;2022-08-14T09:04:02;7.75;;;3.88;;
50549;SDS011;36505;52.512;13.460;2022-08-14T09:06:28;6.68;;;3.40;;
50549;SDS011;36505;52.512;13.460;2022-08-14T09:08:53;9.25;;;3.70;;
50549;SDS011;36505;52.512;13.460;2022-08-14T09:11:19;10.43;;;3.40;;
50549;SDS011;36505;52.512;13.460;2022-08-14T09:13:44;4.45;;;2.78;;
50549;SDS011;36505;52.512;13.460;2022-08-14T09:16:09;6.20;;;2.83;;
50549;SDS011;36505;52.512;13.460;2022-08-14T09:18:35;7.18;;;2.65;;
50549;SDS011;36505;52.512;13.460;2022-08-14T09:21:00;6.43;;;2.85;;
50549;SDS011;36505;52.512;13.460;2022-08-14T09:23:26;8.40;;;2.97;;
50549;SDS011;36505;52.512;13.460;2022-08-14T09:25:52;7.47;;;3.05;;
50549;SDS011;36505;52.512;13.460;2022-08-14T09:28:18;5.57;;;2.80;;
50549;SDS011;36505;52.512;13.460;2022-08-14T09:30:47;5.10;;;2.58;;
50549;SDS011;36505;52.512;13.460;2022-08-14T09:38:36;7.00;;;2.83;;
50549;SDS011;36505;52.512;13.460;2022-08-14T09:41:22;9.23;;;2.80;;
50549;SDS011;36505;52.512;13.460;2022-08-14T09:47:10;4.93;;;2.22;;
50549;SDS011;36505;52.512;13.460;2022-08-14T09:49:36;6.43;;;2.97;;
50549;SDS011;36505;52.512;13.460;2022-08-14T09:52:09;7.07;;;2.33;;
50549;SDS011;36505;52.512;13.460;2022-08-14T09:54:45;5.68;;;2.67;;
50549;SDS011;36505;52.512;13.460;2022-08-14T09:57:24;5.27;;;2.43;;
50549;SDS011;36505;52.512;13.460;2022-08-14T09:59:52;7.77;;;2.50;;
50549;SDS011;36505;52.512;13.460;2022-08-14T10:02:19;4.95;;;2.22;;
50549;SDS011;36505;52.512;13.460;2022-08-14T10:07:48;10.23;;;3.08;;
50549;SDS011;36505;52.512;13.460;2022-08-14T10:13:03;4.75;;;2.90;;
50549;SDS011;36505;52.512;13.460;2022-08-14T10:15:36;4.85;;;2.60;;
50549;SDS011;36505;52.512;13.460;2022-08-14T10:18:14;6.43;;;2.42;;
50549;SDS011;36505;52.512;13.460;2022-08-14T10:20:51;8.40;;;3.10;;
50549;SDS011;36505;52.512;13.460;2022-08-14T10:23:20;14.45;;;2.83;;
50549;SDS011;36505;52.512;13.460;2022-08-14T10:26:03;8.18;;;2.58;;
50549;SDS011;36505;52.512;13.460;2022-08-14T10:28:37;5.28;;;2.58;;
50549;SDS011;36505;52.512;13.460;2022-08-14T10:31:19;6.30;;;2.40;;
50549;SDS011;36505;52.512;13.460;2022-08-14T10:36:26;7.35;;;2.58;;
50549;SDS011;36505;52.512;13.460;2022-08-14T10:38:57;7.43;;;2.90;;
50549;SDS011;36505;52.512;13.460;2022-08-14T10:41:32;3.10;;;2.58;;
50549;SDS011;36505;52.512;13.460;2022-08-14T10:46:57;3.85;;;2.50;;
50549;SDS011;36505;52.512;13.460;2022-08-14T10:49:27;6.90;;;2.83;;
50549;SDS011;36505;52.512;13.460;2022-08-14T10:51:56;7.40;;;2.92;;
50549;SDS011;36505;52.512;13.460;2022-08-14T10:54:29;5.60;;;3.00;;
50549;SDS011;36505;52.512;13.460;2022-08-14T10:56:58;4.30;;;2.55;;
50549;SDS011;36505;52.512;13.460;2022-08-14T10:59:57;4.53;;;2.97;;
50549;SDS011;36505;52.512;13.460;2022-08-14T11:04:58;7.32;;;3.08;;
50549;SDS011;36505;52.512;13.460;2022-08-14T11:07:31;10.63;;;2.95;;
50549;SDS011;36505;52.512;13.460;2022-08-14T11:09:59;10.43;;;3.33;;
50549;SDS011;36505;52.512;13.460;2022-08-14T11:12:40;9.15;;;3.50;;
50549;SDS011;36505;52.512;13.460;2022-08-14T11:15:22;5.07;;;3.20;;
50549;SDS011;36505;52.512;13.460;2022-08-14T11:17:49;5.60;;;3.38;;
50549;SDS011;36505;52.512;13.460;2022-08-14T11:20:16;6.53;;;2.85;;
50549;SDS011;36505;52.512;13.460;2022-08-14T11:22:43;17.33;;;4.13;;
50549;SDS011;36505;52.512;13.460;2022-08-14T11:25:10;4.78;;;3.30;;
50549;SDS011;36505;52.512;13.460;2022-08-14T11:27:41;5.30;;;3.03;;
50549;SDS011;36505;52.512;13.460;2022-08-14T11:30:10;4.80;;;2.80;;
50549;SDS011;36505;52.512;13.460;2022-08-14T11:32:42;8.18;;;2.92;;
50549;SDS011;36505;52.512;13.460;2022-08-14T11:35:36;11.85;;;3.38;;
50549;SDS011;36505;52.512;13.460;2022-08-14T11:38:22;3.38;;;2.60;;
50549;SDS011;36505;52.512;13.460;2022-08-14T11:40:49;8.45;;;2.83;;
50549;SDS011;36505;52.512;13.460;2022-08-14T11:43:14;6.53;;;2.85;;
50549;SDS011;36505;52.512;13.460;2022-08-14T11:45:43;8.82;;;3.25;;
50549;SDS011;36505;52.512;13.460;2022-08-14T11:48:25;7.05;;;3.38;;
50549;SDS011;36505;52.512;13.460;2022-08-14T11:50:50;7.78;;;3.65;;
50549;SDS011;36505;52.512;13.460;2022-08-14T11:53:24;6.68;;;2.80;;
50549;SDS011;36505;52.512;13.460;2022-08-14T11:55:58;6.05;;;2.95;;
50549;SDS011;36505;52.512;13.460;2022-08-14T11:58:29;8.10;;;3.35;;
50549;SDS011;36505;52.512;13.460;2022-08-14T12:01:07;6.90;;;3.03;;
50549;SDS011;36505;52.512;13.460;2022-08-14T12:07:09;4.72;;;3.10;;
50549;SDS011;36505;52.512;13.460;2022-08-14T12:09:45;4.40;;;3.30;;
50549;SDS011;36505;52.512;13.460;2022-08-14T12:12:27;8.38;;;3.58;;
50549;SDS011;36505;52.512;13.460;2022-08-14T12:15:03;5.82;;;3.40;;
50549;SDS011;36505;52.512;13.460;2022-08-14T12:17:30;6.32;;;3.85;;
50549;SDS011;36505;52.512;13.460;2022-08-14T12:20:07;4.88;;;3.20;;
50549;SDS011;36505;52.512;13.460;2022-08-14T12:22:38;7.00;;;3.30;;
50549;SDS011;36505;52.512;13.460;2022-08-14T12:25:19;9.70;;;3.05;;
50549;SDS011;36505;52.512;13.460;2022-08-14T12:27:51;7.80;;;3.30;;
50549;SDS011;36505;52.512;13.460;2022-08-14T12:33:00;7.28;;;3.67;;
50549;SDS011;36505;52.512;13.460;2022-08-14T12:35:37;11.20;;;4.10;;
50549;SDS011;36505;52.512;13.460;2022-08-14T12:38:04;7.30;;;3.65;;
50549;SDS011;36505;52.512;13.460;2022-08-14T12:40:29;5.38;;;3.65;;
50549;SDS011;36505;52.512;13.460;2022-08-14T12:42:59;4.85;;;3.97;;
50549;SDS011;36505;52.512;13.460;2022-08-14T12:45:30;7.93;;;3.85;;
50549;SDS011;36505;52.512;13.460;2022-08-14T12:48:01;7.15;;;3.65;;
50549;SDS011;36505;52.512;13.460;2022-08-14T12:50:38;5.60;;;3.20;;
50549;SDS011;36505;52.512;13.460;2022-08-14T12:53:05;6.10;;;3.25;;
50549;SDS011;36505;52.512;13.460;2022-08-14T12:55:32;4.78;;;2.95;;
50549;SDS011;36505;52.512;13.460;2022-08-14T12:57:59;9.80;;;3.15;;
50549;SDS011;36505;52.512;13.460;2022-08-14T13:00:29;7.60;;;3.50;;
50549;SDS011;36505;52.512;13.460;2022-08-14T13:02:56;5.75;;;3.50;;
50549;SDS011;36505;52.512;13.460;2022-08-14T13:05:26;7.60;;;3.72;;
50549;SDS011;36505;52.512;13.460;2022-08-14T13:07:56;5.90;;;3.47;;
50549;SDS011;36505;52.512;13.460;2022-08-14T13:10:23;7.55;;;3.97;;
50549;SDS011;36505;52.512;13.460;2022-08-14T13:12:53;5.90;;;3.28;;
50549;SDS011;36505;52.512;13.460;2022-08-14T13:15:21;4.70;;;3.33;;
50549;SDS011;36505;52.512;13.460;2022-08-14T13:17:48;3.60;;;3.08;;
50549;SDS011;36505;52.512;13.460;2022-08-14T13:20:16;6.40;;;3.15;;
50549;SDS011;36505;52.512;13.460;2022-08-14T13:22:43;8.07;;;2.97;;
50549;SDS011;36505;52.512;13.460;2022-08-14T13:25:10;8.05;;;3.40;;
50549;SDS011;36505;52.512;13.460;2022-08-14T13:27:41;8.23;;;3.17;;
50549;SDS011;36505;52.512;13.460;2022-08-14T13:30:09;10.05;;;3.03;;
50549;SDS011;36505;52.512;13.460;2022-08-14T13:32:35;8.85;;;3.00;;
50549;SDS011;36505;52.512;13.460;2022-08-14T13:35:05;7.97;;;3.17;;
50549;SDS011;36505;52.512;13.460;2022-08-14T13:37:31;10.98;;;3.35;;
50549;SDS011;36505;52.512;13.460;2022-08-14T13:39:59;4.30;;;2.70;;
50549;SDS011;36505;52.512;13.460;2022-08-14T13:42:25;4.13;;;2.45;;
50549;SDS011;36505;52.512;13.460;2022-08-14T13:44:52;3.15;;;2.65;;
50549;SDS011;36505;52.512;13.460;2022-08-14T13:47:19;10.73;;;3.53;;
50549;SDS011;36505;52.512;13.460;2022-08-14T13:49:46;5.95;;;2.97;;
50549;SDS011;36505;52.512;13.460;2022-08-14T13:52:12;4.10;;;2.50;;
50549;SDS011;36505;52.512;13.460;2022-08-14T13:54:44;3.78;;;2.60;;
50549;SDS011;36505;52.512;13.460;2022-08-14T13:57:11;9.50;;;3.40;;
50549;SDS011;36505;52.512;13.460;2022-08-14T13:59:39;6.00;;;2.92;;
50549;SDS011;36505;52.512;13.460;2022-08-14T14:02:08;5.18;;;2.70;;
50549;SDS011;36505;52.512;13.460;2022-08-14T14:04:39;7.03;;;2.75;;
50549;SDS011;36505;52.512;13.460;2022-08-14T14:07:07;5.63;;;2.50;;
50549;SDS011;36505;52.512;13.460;2022-08-14T14:09:36;4.20;;;2.90;;
50549;SDS011;36505;52.512;13.460;2022-08-14T14:12:04;4.10;;;2.78;;
50549;SDS011;36505;52.512;13.460;2022-08-14T14:14:37;3.95;;;2.70;;
50549;SDS011;36505;52.512;13.460;2022-08-14T14:17:06;4.28;;;2.60;;
50549;SDS011;36505;52.512;13.460;2022-08-14T14:19:36;4.60;;;2.70;;
50549;SDS011;36505;52.512;13.460;2022-08-14T14:22:05;3.05;;;2.42;;
50549;SDS011;36505;52.512;13.460;2022-08-14T14:24:31;5.90;;;3.67;;
50549;SDS011;36505;52.512;13.460;2022-08-14T14:27:01;7.55;;;2.80;;
50549;SDS011;36505;52.512;13.460;2022-08-14T14:29:29;5.50;;;2.75;;
50549;SDS011;36505;52.512;13.460;2022-08-14T14:31:56;3.22;;;2.80;;
50549;SDS011;36505;52.512;13.460;2022-08-14T14:34:23;6.18;;;2.50;;
50549;SDS011;36505;52.512;13.460;2022-08-14T14:36:50;3.13;;;2.58;;
50549;SDS011;36505;52.512;13.460;2022-08-14T14:39:16;4.72;;;2.40;;
50549;SDS011;36505;52.512;13.460;2022-08-14T14:41:45;10.65;;;2.70;;
50549;SDS011;36505;52.512;13.460;2022-08-14T14:44:16;7.32;;;2.50;;
50549;SDS011;36505;52.512;13.460;2022-08-14T14:46:46;6.55;;;2.63;;
50549;SDS011;36505;52.512;13.460;2022-08-14T14:49:14;2.55;;;2.05;;
50549;SDS011;36505;52.512;13.460;2022-08-14T14:51:42;9.55;;;2.50;;
50549;SDS011;36505;52.512;13.460;2022-08-14T14:54:09;6.30;;;2.60;;
50549;SDS011;36505;52.512;13.460;2022-08-14T14:56:36;8.02;;;2.90;;
50549;SDS011;36505;52.512;13.460;2022-08-14T14:59:04;4.72;;;2.78;;
50549;SDS011;36505;52.512;13.460;2022-08-14T15:01:31;7.32;;;2.22;;
50549;SDS011;36505;52.512;13.460;2022-08-14T15:04:00;4.07;;;2.20;;
50549;SDS011;36505;52.512;13.460;2022-08-14T15:06:28;5.72;;;2.60;;
50549;SDS011;36505;52.512;13.460;2022-08-14T15:08:53;6.15;;;2.53;;
50549;SDS011;36505;52.512;13.460;2022-08-14T15:11:19;6.60;;;2.28;;
50549;SDS011;36505;52.512;13.460;2022-08-14T15:13:45;4.03;;;2.17;;
50549;SDS011;36505;52.512;13.460;2022-08-14T15:16:10;4.72;;;2.67;;
50549;SDS011;36505;52.512;13.460;2022-08-14T15:18:36;5.80;;;2.95;;
50549;SDS011;36505;52.512;13.460;2022-08-14T15:21:03;6.43;;;2.22;;
50549;SDS011;36505;52.512;13.460;2022-08-14T15:23:29;3.30;;;2.17;;
50549;SDS011;36505;52.512;13.460;2022-08-14T15:25:55;4.82;;;2.45;;
50549;SDS011;36505;52.512;13.460;2022-08-14T15:28:21;3.13;;;2.40;;
50549;SDS011;36505;52.512;13.460;2022-08-14T15:30:48;6.60;;;2.65;;
50549;SDS011;36505;52.512;13.460;2022-08-14T15:33:13;4.32;;;2.80;;
50549;SDS011;36505;52.512;13.460;2022-08-14T15:35:39;5.63;;;2.80;;
50549;SDS011;36505;52.512;13.460;2022-08-14T15:38:06;10.23;;;2.72;;
50549;SDS011;36505;52.512;13.460;2022-08-14T15:40:35;4.43;;;2.78;;
50549;SDS011;36505;52.512;13.460;2022-08-14T15:43:09;5.13;;;2.55;;
50549;SDS011;36505;52.512;13.460;2022-08-14T15:45:35;3.20;;;2.05;;
50549;SDS011;36505;52.512;13.460;2022-08-14T15:48:08;4.72;;;2.60;;
50549;SDS011;36505;52.512;13.460;2022-08-14T15:50:33;3.47;;;2.17;;
50549;SDS011;36505;52.512;13.460;2022-08-14T15:52:59;8.40;;;2.53;;
50549;SDS011;36505;52.512;13.460;2022-08-14T15:55:24;3.80;;;2.38;;
50549;SDS011;36505;52.512;13.460;2022-08-14T15:57:50;3.83;;;2.35;;
50549;SDS011;36505;52.512;13.460;2022-08-14T16:00:15;4.70;;;2.42;;